sensor_id;sensor_type;location;lat;lon;timestamp;temperature;humidity
75357;HTU21D;63946;51.986;5.930;2024-01-15T05:45:48;2.47;78.34
75357;HTU21D;63946;51.986;5.930;2024-01-15T05:48:18;2.51;78.44
75357;HTU21D;63946;51.986;5.930;2024-01-15T05:50:47;2.53;78.44
75357;HTU21D;63946;51.986;5.930;2024-01-15T05:53:16;2.55;78.50
75357;HTU21D;63946;51.986;5.930;2024-01-15T05:55:45;2.57;78.48
75357;HTU21D;63946;51.986;5.930;2024-01-15T05:58:13;2.57;78.56
75357;HTU21D;63946;51.986;5.930;2024-01-15T06:00:42;2.57;78.61
75357;HTU21D;63946;51.986;5.930;2024-01-15T06:03:12;2.58;78.72
75357;HTU21D;63946;51.986;5.930;2024-01-15T06:05:40;2.58;78.75
75357;HTU21D;63946;51.986;5.930;2024-01-15T06:08:09;2.60;78.79
75357;HTU21D;63946;51.986;5.930;2024-01-15T06:10:38;2.62;78.74
75357;HTU21D;63946;51.986;5.930;2024-01-15T06:13:07;2.65;78.71
75357;HTU21D;63946;51.986;5.930;2024-01-15T06:15:36;2.68;78.79
75357;HTU21D;63946;51.986;5.930;2024-01-15T06:18:05;2.71;78.73
75357;HTU21D;63946;51.986;5.930;2024-01-15T06:20:34;2.74;78.76
75357;HTU21D;63946;51.986;5.930;2024-01-15T06:23:02;2.74;78.68
75357;HTU21D;63946;51.986;5.930;2024-01-15T06:25:31;2.78;78.82
75357;HTU21D;63946;51.986;5.930;2024-01-15T06:28:00;2.78;78.78
75357;HTU21D;63946;51.986;5.930;2024-01-15T06:30:30;2.80;78.72
75357;HTU21D;63946;51.986;5.930;2024-01-15T06:32:59;2.79;78.72
75357;HTU21D;63946;51.986;5.930;2024-01-15T06:35:28;2.80;78.67
75357;HTU21D;63946;51.986;5.930;2024-01-15T06:37:57;2.82;78.71
75357;HTU21D;63946;51.986;5.930;2024-01-15T06:40:25;2.82;78.76
75357;HTU21D;63946;51.986;5.930;2024-01-15T06:42:54;2.83;78.77
75357;HTU21D;63946;51.986;5.930;2024-01-15T06:45:23;2.83;78.71
75357;HTU21D;63946;51.986;5.930;2024-01-15T06:47:52;2.81;78.74
75357;HTU21D;63946;51.986;5.930;2024-01-15T06:50:22;2.74;78.68
75357;HTU21D;63946;51.986;5.930;2024-01-15T06:52:53;2.75;78.70
75357;HTU21D;63946;51.986;5.930;2024-01-15T06:55:22;2.74;78.68
75357;HTU21D;63946;51.986;5.930;2024-01-15T06:57:54;2.71;78.71
75357;HTU21D;63946;51.986;5.930;2024-01-15T07:00:23;2.68;78.79
75357;HTU21D;63946;51.986;5.930;2024-01-15T07:02:51;2.69;78.75
75357;HTU21D;63946;51.986;5.930;2024-01-15T07:05:21;2.68;78.75
75357;HTU21D;63946;51.986;5.930;2024-01-15T07:07:50;2.69;78.74
75357;HTU21D;63946;51.986;5.930;2024-01-15T07:10:18;2.68;78.75
75357;HTU21D;63946;51.986;5.930;2024-01-15T07:12:47;2.68;78.74
75357;HTU21D;63946;51.986;5.930;2024-01-15T07:15:16;2.69;78.75
75357;HTU21D;63946;51.986;5.930;2024-01-15T07:17:45;2.69;78.65
75357;HTU21D;63946;51.986;5.930;2024-01-15T07:20:14;2.67;78.78
75357;HTU21D;63946;51.986;5.930;2024-01-15T07:22:45;2.66;78.79
75357;HTU21D;63946;51.986;5.930;2024-01-15T07:25:16;2.66;78.72
75357;HTU21D;63946;51.986;5.930;2024-01-15T07:27:45;2.64;78.72
75357;HTU21D;63946;51.986;5.930;2024-01-15T07:30:14;2.61;78.76
75357;HTU21D;63946;51.986;5.930;2024-01-15T07:32:43;2.60;78.82
75357;HTU21D;63946;51.986;5.930;2024-01-15T07:35:11;2.62;78.77
75357;HTU21D;63946;51.986;5.930;2024-01-15T07:37:41;2.60;78.88
75357;HTU21D;63946;51.986;5.930;2024-01-15T07:40:10;2.61;78.91
75357;HTU21D;63946;51.986;5.930;2024-01-15T07:42:39;2.60;78.90
75357;HTU21D;63946;51.986;5.930;2024-01-15T07:45:09;2.59;79.01
75357;HTU21D;63946;51.986;5.930;2024-01-15T07:47:38;2.59;79.00
75357;HTU21D;63946;51.986;5.930;2024-01-15T07:50:07;2.56;79.04
75357;HTU21D;63946;51.986;5.930;2024-01-15T07:52:36;2.57;79.08
75357;HTU21D;63946;51.986;5.930;2024-01-15T07:55:05;2.55;79.05
75357;HTU21D;63946;51.986;5.930;2024-01-15T07:57:34;2.55;79.16
75357;HTU21D;63946;51.986;5.930;2024-01-15T08:00:03;2.58;79.09
75357;HTU21D;63946;51.986;5.930;2024-01-15T08:02:32;2.60;79.09
75357;HTU21D;63946;51.986;5.930;2024-01-15T08:05:01;2.60;78.95
75357;HTU21D;63946;51.986;5.930;2024-01-15T08:07:30;2.60;78.98
75357;HTU21D;63946;51.986;5.930;2024-01-15T08:09:58;2.58;79.01
75357;HTU21D;63946;51.986;5.930;2024-01-15T08:12:27;2.60;78.98
75357;HTU21D;63946;51.986;5.930;2024-01-15T08:14:56;2.64;78.91
75357;HTU21D;63946;51.986;5.930;2024-01-15T08:17:27;2.62;78.76
75357;HTU21D;63946;51.986;5.930;2024-01-15T08:20:01;2.61;78.90
75357;HTU21D;63946;51.986;5.930;2024-01-15T08:22:30;2.61;78.89
75357;HTU21D;63946;51.986;5.930;2024-01-15T08:24:59;2.64;78.82
75357;HTU21D;63946;51.986;5.930;2024-01-15T08:27:29;2.66;78.85
75357;HTU21D;63946;51.986;5.930;2024-01-15T08:29:58;2.68;78.86
75357;HTU21D;63946;51.986;5.930;2024-01-15T08:32:26;2.73;78.77
75357;HTU21D;63946;51.986;5.930;2024-01-15T08:34:55;2.73;78.72
75357;HTU21D;63946;51.986;5.930;2024-01-15T08:37:24;2.74;78.66
75357;HTU21D;63946;51.986;5.930;2024-01-15T08:39:53;2.76;78.65
75357;HTU21D;63946;51.986;5.930;2024-01-15T08:42:21;2.79;78.56
75357;HTU21D;63946;51.986;5.930;2024-01-15T08:44:50;2.83;78.53
75357;HTU21D;63946;51.986;5.930;2024-01-15T08:47:19;2.84;78.53
75357;HTU21D;63946;51.986;5.930;2024-01-15T08:49:48;2.84;78.51
75357;HTU21D;63946;51.986;5.930;2024-01-15T08:52:22;2.83;78.54
75357;HTU21D;63946;51.986;5.930;2024-01-15T08:55:02;2.83;78.53
75357;HTU21D;63946;51.986;5.930;2024-01-15T08:57:32;2.82;78.47
75357;HTU21D;63946;51.986;5.930;2024-01-15T09:00:01;2.82;78.60
75357;HTU21D;63946;51.986;5.930;2024-01-15T09:02:34;2.84;78.53
75357;HTU21D;63946;51.986;5.930;2024-01-15T09:05:03;2.81;78.44
75357;HTU21D;63946;51.986;5.930;2024-01-15T09:07:32;2.79;78.57
75357;HTU21D;63946;51.986;5.930;2024-01-15T09:10:01;2.79;78.60
75357;HTU21D;63946;51.986;5.930;2024-01-15T09:12:30;2.78;78.57
75357;HTU21D;63946;51.986;5.930;2024-01-15T09:14:59;2.75;78.57
75357;HTU21D;63946;51.986;5.930;2024-01-15T09:17:31;2.73;78.66
75357;HTU21D;63946;51.986;5.930;2024-01-15T09:20:03;2.74;78.63
75357;HTU21D;63946;51.986;5.930;2024-01-15T09:22:32;2.78;78.56
75357;HTU21D;63946;51.986;5.930;2024-01-15T09:25:03;2.82;78.53
75357;HTU21D;63946;51.986;5.930;2024-01-15T09:27:31;2.83;78.50
75357;HTU21D;63946;51.986;5.930;2024-01-15T09:30:03;2.84;78.46
75357;HTU21D;63946;51.986;5.930;2024-01-15T09:32:32;2.85;78.40
75357;HTU21D;63946;51.986;5.930;2024-01-15T09:35:01;2.90;78.36
75357;HTU21D;63946;51.986;5.930;2024-01-15T09:37:30;2.96;78.24
75357;HTU21D;63946;51.986;5.930;2024-01-15T09:40:05;2.99;78.14
75357;HTU21D;63946;51.986;5.930;2024-01-15T09:42:35;3.06;78.12
75357;HTU21D;63946;51.986;5.930;2024-01-15T09:45:07;3.15;78.03
75357;HTU21D;63946;51.986;5.930;2024-01-15T09:47:40;3.21;77.86
75357;HTU21D;63946;51.986;5.930;2024-01-15T09:50:13;3.23;77.82
75357;HTU21D;63946;51.986;5.930;2024-01-15T09:52:46;3.26;77.84
75357;HTU21D;63946;51.986;5.930;2024-01-15T09:55:17;3.32;77.66
75357;HTU21D;63946;51.986;5.930;2024-01-15T09:57:49;3.30;77.60
75357;HTU21D;63946;51.986;5.930;2024-01-15T10:00:18;3.28;77.60
75357;HTU21D;63946;51.986;5.930;2024-01-15T10:02:47;3.26;77.57
75357;HTU21D;63946;51.986;5.930;2024-01-15T10:05:16;3.18;77.76
75357;HTU21D;63946;51.986;5.930;2024-01-15T10:07:45;3.16;77.86
75357;HTU21D;63946;51.986;5.930;2024-01-15T10:10:16;3.10;77.86
75357;HTU21D;63946;51.986;5.930;2024-01-15T10:12:45;3.11;78.08
75357;HTU21D;63946;51.986;5.930;2024-01-15T10:15:14;3.13;77.85
75357;HTU21D;63946;51.986;5.930;2024-01-15T10:17:43;3.12;77.93
75357;HTU21D;63946;51.986;5.930;2024-01-15T10:20:14;3.23;77.98
75357;HTU21D;63946;51.986;5.930;2024-01-15T10:22:48;3.34;77.58
75357;HTU21D;63946;51.986;5.930;2024-01-15T10:25:16;3.55;77.33
75357;HTU21D;63946;51.986;5.930;2024-01-15T10:28:02;3.73;76.60
75357;HTU21D;63946;51.986;5.930;2024-01-15T10:30:34;3.71;76.50
75357;HTU21D;63946;51.986;5.930;2024-01-15T10:33:03;3.61;76.76
75357;HTU21D;63946;51.986;5.930;2024-01-15T10:35:33;3.54;76.85
75357;HTU21D;63946;51.986;5.930;2024-01-15T10:38:03;3.44;77.07
75357;HTU21D;63946;51.986;5.930;2024-01-15T10:40:33;3.39;77.18
75357;HTU21D;63946;51.986;5.930;2024-01-15T10:43:02;3.34;77.34
75357;HTU21D;63946;51.986;5.930;2024-01-15T10:45:31;3.33;77.44
75357;HTU21D;63946;51.986;5.930;2024-01-15T10:48:03;3.31;77.36
75357;HTU21D;63946;51.986;5.930;2024-01-15T10:50:32;3.29;77.36
75357;HTU21D;63946;51.986;5.930;2024-01-15T10:53:01;3.29;77.39
75357;HTU21D;63946;51.986;5.930;2024-01-15T10:55:30;3.30;77.42
75357;HTU21D;63946;51.986;5.930;2024-01-15T10:58:00;3.38;77.48
75357;HTU21D;63946;51.986;5.930;2024-01-15T11:00:30;3.52;77.28
75357;HTU21D;63946;51.986;5.930;2024-01-15T11:03:01;3.62;76.98
75357;HTU21D;63946;51.986;5.930;2024-01-15T11:05:38;3.55;77.01
75357;HTU21D;63946;51.986;5.930;2024-01-15T11:08:07;3.47;77.10
75357;HTU21D;63946;51.986;5.930;2024-01-15T11:13:19;3.34;77.40
75357;HTU21D;63946;51.986;5.930;2024-01-15T11:15:59;3.28;77.52
75357;HTU21D;63946;51.986;5.930;2024-01-15T11:19:15;3.24;77.64
75357;HTU21D;63946;51.986;5.930;2024-01-15T11:23:55;3.40;77.56
75357;HTU21D;63946;51.986;5.930;2024-01-15T11:26:45;3.50;77.21
75357;HTU21D;63946;51.986;5.930;2024-01-15T11:31:56;3.56;77.18
75357;HTU21D;63946;51.986;5.930;2024-01-15T11:34:52;3.58;77.18
75357;HTU21D;63946;51.986;5.930;2024-01-15T11:37:25;3.65;77.16
75357;HTU21D;63946;51.986;5.930;2024-01-15T11:40:00;3.70;76.98
75357;HTU21D;63946;51.986;5.930;2024-01-15T11:42:29;3.60;77.08
75357;HTU21D;63946;51.986;5.930;2024-01-15T11:44:58;3.60;77.22
75357;HTU21D;63946;51.986;5.930;2024-01-15T11:50:26;3.79;76.95
75357;HTU21D;63946;51.986;5.930;2024-01-15T11:53:03;3.86;76.82
75357;HTU21D;63946;51.986;5.930;2024-01-15T11:55:39;3.87;76.74
75357;HTU21D;63946;51.986;5.930;2024-01-15T11:58:14;3.83;76.78
75357;HTU21D;63946;51.986;5.930;2024-01-15T12:00:44;3.83;76.76
75357;HTU21D;63946;51.986;5.930;2024-01-15T12:03:13;3.76;76.83
75357;HTU21D;63946;51.986;5.930;2024-01-15T12:05:42;3.80;76.92
75357;HTU21D;63946;51.986;5.930;2024-01-15T12:08:11;3.87;76.54
75357;HTU21D;63946;51.986;5.930;2024-01-15T12:10:40;3.95;76.53
75357;HTU21D;63946;51.986;5.930;2024-01-15T12:13:14;4.06;76.39
75357;HTU21D;63946;51.986;5.930;2024-01-15T12:15:44;4.06;76.24
75357;HTU21D;63946;51.986;5.930;2024-01-15T12:18:17;4.12;76.14
75357;HTU21D;63946;51.986;5.930;2024-01-15T12:20:47;4.18;76.20
75357;HTU21D;63946;51.986;5.930;2024-01-15T12:23:15;4.32;75.94
75357;HTU21D;63946;51.986;5.930;2024-01-15T12:25:45;4.39;75.57
75357;HTU21D;63946;51.986;5.930;2024-01-15T12:28:14;4.42;75.41
75357;HTU21D;63946;51.986;5.930;2024-01-15T12:30:46;4.47;75.22
75357;HTU21D;63946;51.986;5.930;2024-01-15T12:33:17;4.48;75.17
75357;HTU21D;63946;51.986;5.930;2024-01-15T12:35:48;4.38;75.15
75357;HTU21D;63946;51.986;5.930;2024-01-15T12:38:19;4.35;75.40
75357;HTU21D;63946;51.986;5.930;2024-01-15T12:40:48;4.26;75.31
75357;HTU21D;63946;51.986;5.930;2024-01-15T12:43:17;4.15;75.70
75357;HTU21D;63946;51.986;5.930;2024-01-15T12:45:46;3.98;75.74
75357;HTU21D;63946;51.986;5.930;2024-01-15T12:48:15;3.86;76.05
75357;HTU21D;63946;51.986;5.930;2024-01-15T12:50:44;3.75;76.24
75357;HTU21D;63946;51.986;5.930;2024-01-15T12:53:14;3.68;76.41
75357;HTU21D;63946;51.986;5.930;2024-01-15T12:55:43;3.67;76.57
75357;HTU21D;63946;51.986;5.930;2024-01-15T12:58:12;3.80;76.32
75357;HTU21D;63946;51.986;5.930;2024-01-15T13:00:40;3.84;76.24
75357;HTU21D;63946;51.986;5.930;2024-01-15T13:03:09;3.82;76.28
75357;HTU21D;63946;51.986;5.930;2024-01-15T13:05:40;3.92;76.34
75357;HTU21D;63946;51.986;5.930;2024-01-15T13:08:10;4.09;76.00
75357;HTU21D;63946;51.986;5.930;2024-01-15T13:10:39;4.22;75.92
75357;HTU21D;63946;51.986;5.930;2024-01-15T13:13:11;4.35;75.69
75357;HTU21D;63946;51.986;5.930;2024-01-15T13:15:40;4.45;75.38
75357;HTU21D;63946;51.986;5.930;2024-01-15T13:18:09;4.50;75.02
75357;HTU21D;63946;51.986;5.930;2024-01-15T13:20:38;4.41;74.96
75357;HTU21D;63946;51.986;5.930;2024-01-15T13:23:06;4.29;75.15
75357;HTU21D;63946;51.986;5.930;2024-01-15T13:25:35;4.16;75.34
75357;HTU21D;63946;51.986;5.930;2024-01-15T13:28:06;4.02;75.25
75357;HTU21D;63946;51.986;5.930;2024-01-15T13:30:34;3.94;75.41
75357;HTU21D;63946;51.986;5.930;2024-01-15T13:33:03;3.91;75.45
75357;HTU21D;63946;51.986;5.930;2024-01-15T13:35:32;3.91;75.50
75357;HTU21D;63946;51.986;5.930;2024-01-15T13:38:01;3.92;75.15
75357;HTU21D;63946;51.986;5.930;2024-01-15T13:40:33;3.88;75.04
75357;HTU21D;63946;51.986;5.930;2024-01-15T13:43:02;3.80;75.04
75357;HTU21D;63946;51.986;5.930;2024-01-15T13:45:34;3.71;75.01
75357;HTU21D;63946;51.986;5.930;2024-01-15T13:48:06;3.62;75.15
75357;HTU21D;63946;51.986;5.930;2024-01-15T13:50:35;3.56;75.26
75357;HTU21D;63946;51.986;5.930;2024-01-15T13:53:04;3.52;75.39
75357;HTU21D;63946;51.986;5.930;2024-01-15T13:55:37;3.49;75.34
75357;HTU21D;63946;51.986;5.930;2024-01-15T13:58:06;3.45;75.44
75357;HTU21D;63946;51.986;5.930;2024-01-15T14:00:35;3.46;75.54
75357;HTU21D;63946;51.986;5.930;2024-01-15T14:03:05;3.47;75.57
75357;HTU21D;63946;51.986;5.930;2024-01-15T14:05:34;3.47;75.54
75357;HTU21D;63946;51.986;5.930;2024-01-15T14:08:03;3.58;75.42
75357;HTU21D;63946;51.986;5.930;2024-01-15T14:10:32;3.62;74.99
75357;HTU21D;63946;51.986;5.930;2024-01-15T14:13:01;3.65;74.89
75357;HTU21D;63946;51.986;5.930;2024-01-15T14:15:29;3.73;74.90
75357;HTU21D;63946;51.986;5.930;2024-01-15T14:17:58;3.84;74.70
75357;HTU21D;63946;51.986;5.930;2024-01-15T14:20:29;3.94;74.54
75357;HTU21D;63946;51.986;5.930;2024-01-15T14:22:58;4.05;74.44
75357;HTU21D;63946;51.986;5.930;2024-01-15T14:25:27;4.12;74.09
75357;HTU21D;63946;51.986;5.930;2024-01-15T14:27:56;4.07;73.97
75357;HTU21D;63946;51.986;5.930;2024-01-15T14:30:25;4.06;74.02
75357;HTU21D;63946;51.986;5.930;2024-01-15T14:32:53;4.01;74.03
75357;HTU21D;63946;51.986;5.930;2024-01-15T14:35:22;3.89;74.38
75357;HTU21D;63946;51.986;5.930;2024-01-15T14:37:51;3.76;74.74
75357;HTU21D;63946;51.986;5.930;2024-01-15T14:40:19;3.63;74.98
75357;HTU21D;63946;51.986;5.930;2024-01-15T14:42:48;3.50;75.47
75357;HTU21D;63946;51.986;5.930;2024-01-15T14:45:17;3.52;75.70
75357;HTU21D;63946;51.986;5.930;2024-01-15T14:47:46;3.53;75.48
75357;HTU21D;63946;51.986;5.930;2024-01-15T14:50:15;3.50;75.64
75357;HTU21D;63946;51.986;5.930;2024-01-15T14:52:44;3.56;75.58
75357;HTU21D;63946;51.986;5.930;2024-01-15T14:55:13;3.55;75.59
75357;HTU21D;63946;51.986;5.930;2024-01-15T14:57:41;3.52;75.67
75357;HTU21D;63946;51.986;5.930;2024-01-15T15:00:10;3.49;75.60
75357;HTU21D;63946;51.986;5.930;2024-01-15T15:02:42;3.47;75.67
75357;HTU21D;63946;51.986;5.930;2024-01-15T15:05:11;3.55;75.65
75357;HTU21D;63946;51.986;5.930;2024-01-15T15:07:43;3.63;75.50
75357;HTU21D;63946;51.986;5.930;2024-01-15T15:10:12;3.71;75.32
75357;HTU21D;63946;51.986;5.930;2024-01-15T15:12:40;3.76;75.18
75357;HTU21D;63946;51.986;5.930;2024-01-15T15:15:09;3.71;75.20
75357;HTU21D;63946;51.986;5.930;2024-01-15T15:17:40;3.67;75.30
75357;HTU21D;63946;51.986;5.930;2024-01-15T15:20:09;3.62;75.35
75357;HTU21D;63946;51.986;5.930;2024-01-15T15:22:38;3.56;75.55
75357;HTU21D;63946;51.986;5.930;2024-01-15T15:25:09;3.50;75.74
75357;HTU21D;63946;51.986;5.930;2024-01-15T15:27:38;3.47;75.85
75357;HTU21D;63946;51.986;5.930;2024-01-15T15:30:07;3.45;75.92
75357;HTU21D;63946;51.986;5.930;2024-01-15T15:32:36;3.41;75.98
75357;HTU21D;63946;51.986;5.930;2024-01-15T15:35:05;3.36;76.12
75357;HTU21D;63946;51.986;5.930;2024-01-15T15:37:37;3.33;76.17
75357;HTU21D;63946;51.986;5.930;2024-01-15T15:40:06;3.30;76.24
75357;HTU21D;63946;51.986;5.930;2024-01-15T15:42:39;3.27;76.14
75357;HTU21D;63946;51.986;5.930;2024-01-15T15:45:08;3.25;76.16
75357;HTU21D;63946;51.986;5.930;2024-01-15T15:47:38;3.21;76.14
75357;HTU21D;63946;51.986;5.930;2024-01-15T15:50:09;3.17;76.05
75357;HTU21D;63946;51.986;5.930;2024-01-15T15:52:37;3.16;76.15
75357;HTU21D;63946;51.986;5.930;2024-01-15T15:55:06;3.15;76.12
75357;HTU21D;63946;51.986;5.930;2024-01-15T15:57:36;3.10;76.20
75357;HTU21D;63946;51.986;5.930;2024-01-15T16:00:08;3.04;76.36
75357;HTU21D;63946;51.986;5.930;2024-01-15T16:02:40;2.99;76.49
75357;HTU21D;63946;51.986;5.930;2024-01-15T16:05:09;2.98;76.66
75357;HTU21D;63946;51.986;5.930;2024-01-15T16:07:38;2.98;76.64
75357;HTU21D;63946;51.986;5.930;2024-01-15T16:10:07;2.96;76.67
75357;HTU21D;63946;51.986;5.930;2024-01-15T16:12:36;2.97;76.86
75357;HTU21D;63946;51.986;5.930;2024-01-15T16:15:17;3.01;76.80
75357;HTU21D;63946;51.986;5.930;2024-01-15T16:17:49;3.05;76.73
75357;HTU21D;63946;51.986;5.930;2024-01-15T16:20:18;3.06;76.73
75357;HTU21D;63946;51.986;5.930;2024-01-15T16:22:47;3.11;76.59
75357;HTU21D;63946;51.986;5.930;2024-01-15T16:25:16;3.06;76.18
75357;HTU21D;63946;51.986;5.930;2024-01-15T16:27:45;3.02;76.28
75357;HTU21D;63946;51.986;5.930;2024-01-15T16:30:14;2.96;76.31
75357;HTU21D;63946;51.986;5.930;2024-01-15T16:32:43;2.87;76.43
75357;HTU21D;63946;51.986;5.930;2024-01-15T16:35:11;2.82;76.49
75357;HTU21D;63946;51.986;5.930;2024-01-15T16:37:40;2.73;76.51
75357;HTU21D;63946;51.986;5.930;2024-01-15T16:40:09;2.68;76.76
75357;HTU21D;63946;51.986;5.930;2024-01-15T16:42:38;2.64;76.87
75357;HTU21D;63946;51.986;5.930;2024-01-15T16:45:07;2.64;76.90
75357;HTU21D;63946;51.986;5.930;2024-01-15T16:47:40;2.61;76.92
75357;HTU21D;63946;51.986;5.930;2024-01-15T16:50:13;2.60;76.92
75357;HTU21D;63946;51.986;5.930;2024-01-15T16:52:41;2.61;76.76
75357;HTU21D;63946;51.986;5.930;2024-01-15T16:55:10;2.60;76.71
75357;HTU21D;63946;51.986;5.930;2024-01-15T16:57:39;2.61;76.69
75357;HTU21D;63946;51.986;5.930;2024-01-15T17:00:08;2.62;76.66
75357;HTU21D;63946;51.986;5.930;2024-01-15T17:02:37;2.62;76.52
75357;HTU21D;63946;51.986;5.930;2024-01-15T17:05:08;2.66;76.53
75357;HTU21D;63946;51.986;5.930;2024-01-15T17:07:38;2.66;76.48
75357;HTU21D;63946;51.986;5.930;2024-01-15T17:10:10;2.62;76.31
75357;HTU21D;63946;51.986;5.930;2024-01-15T17:12:39;2.62;76.48
75357;HTU21D;63946;51.986;5.930;2024-01-15T17:15:08;2.59;76.43
75357;HTU21D;63946;51.986;5.930;2024-01-15T17:17:37;2.56;76.53
75357;HTU21D;63946;51.986;5.930;2024-01-15T17:20:07;2.57;76.62
75357;HTU21D;63946;51.986;5.930;2024-01-15T17:22:36;2.58;76.60
75357;HTU21D;63946;51.986;5.930;2024-01-15T17:25:05;2.62;76.53
75357;HTU21D;63946;51.986;5.930;2024-01-15T17:27:37;2.62;76.44
75357;HTU21D;63946;51.986;5.930;2024-01-15T17:30:11;2.68;76.37
75357;HTU21D;63946;51.986;5.930;2024-01-15T17:32:40;2.68;76.24
75357;HTU21D;63946;51.986;5.930;2024-01-15T17:35:09;2.73;76.24
75357;HTU21D;63946;51.986;5.930;2024-01-15T17:37:38;2.76;76.14
75357;HTU21D;63946;51.986;5.930;2024-01-15T17:40:07;2.80;75.99
75357;HTU21D;63946;51.986;5.930;2024-01-15T17:42:36;2.78;75.95
75357;HTU21D;63946;51.986;5.930;2024-01-15T17:45:07;2.76;76.05
75357;HTU21D;63946;51.986;5.930;2024-01-15T17:47:36;2.72;76.18
75357;HTU21D;63946;51.986;5.930;2024-01-15T17:50:08;2.70;76.24
75357;HTU21D;63946;51.986;5.930;2024-01-15T17:52:40;2.66;76.34
75357;HTU21D;63946;51.986;5.930;2024-01-15T17:55:09;2.66;76.37
75357;HTU21D;63946;51.986;5.930;2024-01-15T17:57:38;2.64;76.35
75357;HTU21D;63946;51.986;5.930;2024-01-15T18:00:07;2.61;76.48
75357;HTU21D;63946;51.986;5.930;2024-01-15T18:02:40;2.62;76.46
75357;HTU21D;63946;51.986;5.930;2024-01-15T18:05:08;2.66;76.47
75357;HTU21D;63946;51.986;5.930;2024-01-15T18:07:37;2.67;76.34
75357;HTU21D;63946;51.986;5.930;2024-01-15T18:10:08;2.65;76.47
75357;HTU21D;63946;51.986;5.930;2024-01-15T18:12:40;2.64;76.57
75357;HTU21D;63946;51.986;5.930;2024-01-15T18:15:11;2.60;76.57
75357;HTU21D;63946;51.986;5.930;2024-01-15T18:17:42;2.57;76.58
75357;HTU21D;63946;51.986;5.930;2024-01-15T18:20:13;2.56;76.58
75357;HTU21D;63946;51.986;5.930;2024-01-15T18:22:42;2.57;76.65
75357;HTU21D;63946;51.986;5.930;2024-01-15T18:25:12;2.61;76.62
75357;HTU21D;63946;51.986;5.930;2024-01-15T18:27:41;2.59;76.58
75357;HTU21D;63946;51.986;5.930;2024-01-15T18:30:10;2.59;76.63
75357;HTU21D;63946;51.986;5.930;2024-01-15T18:32:39;2.58;76.66
75357;HTU21D;63946;51.986;5.930;2024-01-15T18:35:08;2.56;76.66
75357;HTU21D;63946;51.986;5.930;2024-01-15T18:37:40;2.54;76.54
75357;HTU21D;63946;51.986;5.930;2024-01-15T18:40:09;2.53;76.60
75357;HTU21D;63946;51.986;5.930;2024-01-15T18:42:39;2.53;76.60
75357;HTU21D;63946;51.986;5.930;2024-01-15T18:45:08;2.55;76.63
75357;HTU21D;63946;51.986;5.930;2024-01-15T18:47:40;2.60;76.54
75357;HTU21D;63946;51.986;5.930;2024-01-15T18:50:10;2.61;76.39
75357;HTU21D;63946;51.986;5.930;2024-01-15T18:52:39;2.62;76.36
75357;HTU21D;63946;51.986;5.930;2024-01-15T18:55:08;2.64;76.32
75357;HTU21D;63946;51.986;5.930;2024-01-15T18:57:42;2.64;76.49
75357;HTU21D;63946;51.986;5.930;2024-01-15T19:00:11;2.64;76.54
75357;HTU21D;63946;51.986;5.930;2024-01-15T19:02:40;2.64;76.62
75357;HTU21D;63946;51.986;5.930;2024-01-15T19:05:09;2.61;76.60
75357;HTU21D;63946;51.986;5.930;2024-01-15T19:07:41;2.59;76.77
75357;HTU21D;63946;51.986;5.930;2024-01-15T19:10:11;2.56;76.88
75357;HTU21D;63946;51.986;5.930;2024-01-15T19:12:42;2.54;76.94
75357;HTU21D;63946;51.986;5.930;2024-01-15T19:15:12;2.52;77.03
75357;HTU21D;63946;51.986;5.930;2024-01-15T19:17:41;2.49;77.08
75357;HTU21D;63946;51.986;5.930;2024-01-15T19:20:14;2.47;77.21
75357;HTU21D;63946;51.986;5.930;2024-01-15T19:22:43;2.47;77.37
75357;HTU21D;63946;51.986;5.930;2024-01-15T19:25:11;2.46;77.40
75357;HTU21D;63946;51.986;5.930;2024-01-15T19:27:41;2.50;77.41
75357;HTU21D;63946;51.986;5.930;2024-01-15T19:30:12;2.53;77.37
75357;HTU21D;63946;51.986;5.930;2024-01-15T19:32:43;2.58;77.32
75357;HTU21D;63946;51.986;5.930;2024-01-15T19:35:12;2.60;77.22
75357;HTU21D;63946;51.986;5.930;2024-01-15T19:37:41;2.62;77.19
75357;HTU21D;63946;51.986;5.930;2024-01-15T19:40:11;2.61;77.21
75357;HTU21D;63946;51.986;5.930;2024-01-15T19:42:40;2.58;77.25
75357;HTU21D;63946;51.986;5.930;2024-01-15T19:45:09;2.59;77.37
75357;HTU21D;63946;51.986;5.930;2024-01-15T19:47:38;2.60;77.37
75357;HTU21D;63946;51.986;5.930;2024-01-15T19:50:09;2.66;77.28
75357;HTU21D;63946;51.986;5.930;2024-01-15T19:52:40;2.65;77.15
75357;HTU21D;63946;51.986;5.930;2024-01-15T19:55:09;2.64;77.27
75357;HTU21D;63946;51.986;5.930;2024-01-15T19:57:39;2.62;77.28
75357;HTU21D;63946;51.986;5.930;2024-01-15T20:00:08;2.65;77.30
75357;HTU21D;63946;51.986;5.930;2024-01-15T20:02:37;2.65;77.23
75357;HTU21D;63946;51.986;5.930;2024-01-15T20:05:07;2.62;77.21
75357;HTU21D;63946;51.986;5.930;2024-01-15T20:07:41;2.62;77.38
75357;HTU21D;63946;51.986;5.930;2024-01-15T20:10:13;2.64;77.42
75357;HTU21D;63946;51.986;5.930;2024-01-15T20:12:42;2.62;77.45
75357;HTU21D;63946;51.986;5.930;2024-01-15T20:15:13;2.61;77.60
75357;HTU21D;63946;51.986;5.930;2024-01-15T20:17:44;2.62;77.63
75357;HTU21D;63946;51.986;5.930;2024-01-15T20:20:15;2.60;77.79
75357;HTU21D;63946;51.986;5.930;2024-01-15T20:22:45;2.64;77.76
75357;HTU21D;63946;51.986;5.930;2024-01-15T20:25:14;2.66;77.69
75357;HTU21D;63946;51.986;5.930;2024-01-15T20:27:43;2.68;77.71
75357;HTU21D;63946;51.986;5.930;2024-01-15T20:30:10;2.72;77.68
75357;HTU21D;63946;51.986;5.930;2024-01-15T20:32:39;2.73;77.54
75357;HTU21D;63946;51.986;5.930;2024-01-15T20:35:08;2.73;77.63
75357;HTU21D;63946;51.986;5.930;2024-01-15T20:37:39;2.75;77.57
75357;HTU21D;63946;51.986;5.930;2024-01-15T20:40:12;2.74;77.66
75357;HTU21D;63946;51.986;5.930;2024-01-15T20:42:43;2.71;77.71
75357;HTU21D;63946;51.986;5.930;2024-01-15T20:45:11;2.68;77.75
75357;HTU21D;63946;51.986;5.930;2024-01-15T20:47:42;2.66;77.86
75357;HTU21D;63946;51.986;5.930;2024-01-15T20:50:11;2.64;77.94
75357;HTU21D;63946;51.986;5.930;2024-01-15T20:52:40;2.62;77.95
75357;HTU21D;63946;51.986;5.930;2024-01-15T20:55:09;2.60;77.96
75357;HTU21D;63946;51.986;5.930;2024-01-15T20:57:39;2.59;77.95
75357;HTU21D;63946;51.986;5.930;2024-01-15T21:00:11;2.58;77.96
75357;HTU21D;63946;51.986;5.930;2024-01-15T21:02:41;2.59;78.01
75357;HTU21D;63946;51.986;5.930;2024-01-15T21:05:10;2.59;77.94
75357;HTU21D;63946;51.986;5.930;2024-01-15T21:07:39;2.61;78.01
75357;HTU21D;63946;51.986;5.930;2024-01-15T21:10:09;2.62;77.97
75357;HTU21D;63946;51.986;5.930;2024-01-15T21:12:39;2.64;77.92
75357;HTU21D;63946;51.986;5.930;2024-01-15T21:15:08;2.66;77.85
75357;HTU21D;63946;51.986;5.930;2024-01-15T21:17:37;2.67;77.86
75357;HTU21D;63946;51.986;5.930;2024-01-15T21:20:08;2.65;77.85
75357;HTU21D;63946;51.986;5.930;2024-01-15T21:22:40;2.65;77.85
75357;HTU21D;63946;51.986;5.930;2024-01-15T21:25:22;2.66;77.77
